| time (UTC) | temp F | wind direction | speed knots | gust knots | rain 1hr in | rain 24hr in | rain mn in | humidity % | barometer mb |
| 20260509102104 | 47 | 63 | 0.0 | 1.7 | 0.00 | 0.00 | 0.00 | 89 | 1025.3 |
| 20260509101104 | 47 | 63 | 0.0 | 0.0 | 0.00 | 0.00 | 0.00 | 87 | 1025.3 |
| 20260509100604 | 48 | 63 | 0.0 | 0.0 | 0.00 | 0.00 | 0.00 | 86 | 1025.3 |
| 20260509100104 | 48 | 64 | 0.0 | 0.0 | 0.00 | 0.00 | 0.00 | 85 | 1025.2 |
| 20260509095604 | 49 | 63 | 0.0 | 0.0 | 0.00 | 0.00 | 0.00 | 85 | 1025.2 |
| 20260509095104 | 49 | 64 | 0.0 | 0.0 | 0.00 | 0.00 | 0.00 | 85 | 1025.1 |
| 20260509094604 | 49 | 65 | 0.0 | 0.0 | 0.00 | 0.00 | 0.00 | 85 | 1025.1 |
| 20260509094104 | 49 | 65 | 0.0 | 0.0 | 0.00 | 0.00 | 0.00 | 84 | 1025.0 |
| 20260509093604 | 49 | 65 | 0.0 | 0.0 | 0.00 | 0.00 | 0.00 | 84 | 1025.0 |
| 20260509093104 | 49 | 67 | 0.0 | 0.0 | 0.00 | 0.00 | 0.00 | 84 | 1025.0 |
| 20260509092604 | 49 | 67 | 0.0 | 0.0 | 0.00 | 0.00 | 0.00 | 84 | 1024.9 |
| 20260509092104 | 49 | 68 | 0.0 | 0.0 | 0.00 | 0.00 | 0.00 | 84 | 1025.0 |
| 20260509091104 | 49 | 68 | 0.0 | 0.0 | 0.00 | 0.00 | 0.00 | 85 | 1024.9 |
| 20260509090604 | 49 | 68 | 0.0 | 0.0 | 0.00 | 0.00 | 0.00 | 86 | 1024.9 |
| 20260509090104 | 49 | 68 | 0.0 | 0.0 | 0.00 | 0.00 | 0.00 | 86 | 1024.8 |
| 20260509085604 | 49 | 68 | 0.0 | 0.0 | 0.00 | 0.00 | 0.00 | 86 | 1024.8 |
| 20260509085104 | 49 | 68 | 0.0 | 0.0 | 0.00 | 0.00 | 0.00 | 86 | 1024.8 |
| 20260509084604 | 49 | 68 | 0.0 | 0.0 | 0.00 | 0.00 | 0.00 | 86 | 1024.7 |
| 20260509084104 | 49 | 68 | 0.0 | 0.0 | 0.00 | 0.00 | 0.00 | 86 | 1024.7 |
| 20260509083604 | 49 | 68 | 0.0 | 0.0 | 0.00 | 0.00 | 0.00 | 86 | 1024.6 |
| 20260509083104 | 49 | 69 | 0.0 | 0.0 | 0.00 | 0.00 | 0.00 | 86 | 1024.6 |
| 20260509082604 | 49 | 69 | 0.0 | 0.0 | 0.00 | 0.00 | 0.00 | 86 | 1024.6 |
| 20260509082104 | 49 | 69 | 0.0 | 0.0 | 0.00 | 0.00 | 0.00 | 86 | 1024.5 |
| 20260509081604 | 49 | 69 | 0.0 | 0.0 | 0.00 | 0.00 | 0.00 | 86 | 1024.4 |
| 20260509081104 | 49 | 69 | 0.0 | 0.0 | 0.00 | 0.00 | 0.00 | 86 | 1024.3 |
| 20260509080604 | 49 | 69 | 0.0 | 0.0 | 0.00 | 0.00 | 0.00 | 86 | 1024.2 |
| 20260509080104 | 49 | 69 | 0.0 | 0.0 | 0.00 | 0.00 | 0.00 | 86 | 1024.2 |
| 20260509075604 | 50 | 69 | 0.0 | 0.0 | 0.00 | 0.00 | 0.00 | 86 | 1024.1 |
| 20260509075105 | 50 | 69 | 0.0 | 0.0 | 0.00 | 0.00 | 0.00 | 85 | 1024.0 |
| 20260509074604 | 50 | 69 | 0.0 | 0.0 | 0.00 | 0.00 | 0.00 | 85 | 1023.9 |
| 20260509073604 | 50 | 69 | 0.0 | 0.0 | 0.00 | 0.00 | 0.00 | 84 | 1023.9 |
| 20260509073104 | 51 | 69 | 0.0 | 0.0 | 0.00 | 0.00 | 0.00 | 84 | 1023.8 |
| 20260509072604 | 51 | 69 | 0.0 | 0.0 | 0.00 | 0.00 | 0.00 | 84 | 1023.8 |
| 20260509072104 | 51 | 69 | 0.0 | 1.7 | 0.00 | 0.00 | 0.00 | 83 | 1023.8 |
| 20260509071604 | 51 | 69 | 0.0 | 1.7 | 0.00 | 0.00 | 0.00 | 83 | 1023.7 |
| 20260509070604 | 52 | 69 | 0.9 | 1.7 | 0.00 | 0.00 | 0.00 | 82 | 1023.6 |
| 20260509070104 | 53 | 69 | 0.9 | 2.6 | 0.00 | 0.00 | 0.00 | 82 | 1023.6 |
| 20260509065604 | 53 | 69 | 0.9 | 2.6 | 0.00 | 0.00 | 0.00 | 81 | 1023.5 |
| 20260509065104 | 53 | 69 | 0.9 | 4.3 | 0.00 | 0.00 | 0.00 | 81 | 1023.5 |
| 20260509064604 | 54 | 68 | 1.7 | 4.3 | 0.00 | 0.00 | 0.00 | 81 | 1023.5 |
| 20260509063604 | 54 | 62 | 1.7 | 4.3 | 0.00 | 0.00 | 0.00 | 80 | 1023.4 |
| 20260509063104 | 55 | 70 | 1.7 | 4.3 | 0.00 | 0.00 | 0.00 | 79 | 1023.4 |
| 20260509062604 | 55 | 70 | 2.6 | 4.3 | 0.00 | 0.00 | 0.00 | 79 | 1023.4 |
| 20260509061604 | 55 | 66 | 2.6 | 6.1 | 0.00 | 0.00 | 0.00 | 78 | 1023.3 |
| 20260509061104 | 55 | 75 | 3.5 | 6.1 | 0.00 | 0.00 | 0.00 | 77 | 1023.2 |
| 20260509060604 | 55 | 75 | 1.7 | 7.0 | 0.00 | 0.00 | 0.00 | 77 | 1023.2 |
| 20260509055604 | 56 | 61 | 1.7 | 7.0 | 0.00 | 0.00 | 0.00 | 76 | 1023.0 |
| 20260509055104 | 56 | 71 | 0.9 | 7.0 | 0.00 | 0.00 | 0.00 | 76 | 1023.0 |
| 20260509054604 | 57 | 63 | 2.6 | 7.0 | 0.00 | 0.00 | 0.00 | 75 | 1023.0 |
| 20260509054104 | 57 | 58 | 2.6 | 6.1 | 0.00 | 0.00 | 0.00 | 75 | 1022.9 |
| 20260509053604 | 57 | 81 | 1.7 | 4.3 | 0.00 | 0.00 | 0.00 | 74 | 1022.9 |
| 20260509053104 | 57 | 80 | 2.6 | 4.3 | 0.00 | 0.00 | 0.00 | 74 | 1022.9 |
| 20260509052104 | 58 | 75 | 2.6 | 7.0 | 0.00 | 0.00 | 0.00 | 72 | 1022.8 |
| 20260509051604 | 58 | 73 | 3.5 | 7.0 | 0.00 | 0.00 | 0.00 | 70 | 1022.8 |
| 20260509050604 | 59 | 59 | 1.7 | 7.0 | 0.00 | 0.00 | 0.00 | 65 | 1022.8 |
| 20260509050104 | 60 | 67 | 1.7 | 2.6 | 0.00 | 0.00 | 0.00 | 65 | 1022.8 |
| 20260509045604 | 61 | 214 | 0.9 | 2.6 | 0.00 | 0.00 | 0.00 | 63 | 1022.8 |
| 20260509045104 | 61 | 217 | 0.9 | 2.6 | 0.00 | 0.00 | 0.00 | 63 | 1022.8 |
| 20260509044604 | 62 | 218 | 0.9 | 2.6 | 0.00 | 0.00 | 0.00 | 63 | 1022.8 |
| 20260509044104 | 62 | 218 | 1.7 | 2.6 | 0.00 | 0.00 | 0.00 | 62 | 1022.8 |
| 20260509043604 | 63 | 252 | 0.9 | 1.7 | 0.00 | 0.00 | 0.00 | 56 | 1022.8 |
| 20260509042604 | 62 | 252 | 0.9 | 4.3 | 0.00 | 0.00 | 0.00 | 55 | 1022.8 |
| 20260509042104 | 62 | 252 | 0.9 | 4.3 | 0.00 | 0.00 | 0.00 | 56 | 1022.8 |
| 20260509041604 | 62 | 248 | 0.9 | 2.6 | 0.00 | 0.00 | 0.00 | 56 | 1022.8 |
| 20260509040104 | 62 | 260 | 2.6 | 7.0 | 0.00 | 0.00 | 0.00 | 57 | 1022.7 |
| 20260509035604 | 63 | 259 | 1.7 | 7.0 | 0.00 | 0.00 | 0.00 | 56 | 1022.7 |
| 20260509035104 | 62 | 263 | 3.5 | 7.0 | 0.00 | 0.00 | 0.00 | 58 | 1022.7 |
| 20260509034603 | 62 | 272 | 0.0 | 2.6 | 0.00 | 0.00 | 0.00 | 58 | 1022.8 |
| 20260509033604 | 63 | 267 | 2.6 | 7.0 | 0.00 | 0.00 | 0.00 | 58 | 1022.8 |
| 20260509033104 | 62 | 246 | 1.7 | 7.0 | 0.00 | 0.00 | 0.00 | 59 | 1022.8 |
| 20260509032604 | 62 | 247 | 1.7 | 6.1 | 0.00 | 0.00 | 0.00 | 61 | 1022.8 |
| 20260509032104 | 61 | 264 | 1.7 | 7.0 | 0.00 | 0.00 | 0.00 | 62 | 1022.8 |
| 20260509031604 | 61 | 240 | 2.6 | 7.0 | 0.00 | 0.00 | 0.00 | 61 | 1022.8 |
| 20260509031103 | 61 | 250 | 4.3 | 7.0 | 0.00 | 0.00 | 0.00 | 62 | 1022.9 |
| 20260509030604 | 60 | 208 | 0.9 | 2.6 | 0.00 | 0.00 | 0.00 | 63 | 1023.0 |
| 20260509025604 | 59 | 198 | 0.9 | 2.6 | 0.00 | 0.00 | 0.00 | 65 | 1023.1 |
| 20260509025104 | 59 | 198 | 0.9 | 5.2 | 0.00 | 0.00 | 0.00 | 64 | 1023.2 |
| 20260509024604 | 59 | 200 | 2.6 | 5.2 | 0.00 | 0.00 | 0.00 | 64 | 1023.3 |
| 20260509024104 | 59 | 200 | 1.7 | 5.2 | 0.00 | 0.00 | 0.00 | 64 | 1023.3 |
| 20260509023604 | 60 | 203 | 2.6 | 5.2 | 0.00 | 0.00 | 0.00 | 62 | 1023.4 |
| 20260509023104 | 61 | 229 | 1.7 | 4.3 | 0.00 | 0.00 | 0.00 | 62 | 1023.5 |
| 20260509022604 | 61 | 264 | 1.7 | 4.3 | 0.00 | 0.00 | 0.00 | 62 | 1023.6 |
| 20260509021603 | 61 | 241 | 2.6 | 7.0 | 0.00 | 0.00 | 0.00 | 63 | 1023.5 |
| 20260509021103 | 61 | 252 | 1.7 | 6.1 | 0.00 | 0.00 | 0.00 | 63 | 1023.6 |
| 20260509020604 | 60 | 256 | 2.6 | 5.2 | 0.00 | 0.00 | 0.00 | 63 | 1023.7 |
| 20260509020104 | 60 | 312 | 2.6 | 4.3 | 0.00 | 0.00 | 0.00 | 64 | 1023.8 |
| 20260509015604 | 60 | 262 | 0.9 | 4.3 | 0.00 | 0.00 | 0.00 | 65 | 1023.8 |
| 20260509015104 | 59 | 320 | 2.6 | 5.2 | 0.00 | 0.00 | 0.00 | 65 | 1023.9 |
| 20260509014605 | 59 | 305 | 2.6 | 5.2 | 0.00 | 0.00 | 0.00 | 65 | 1023.9 |
| 20260509014104 | 58 | 271 | 2.6 | 6.1 | 0.00 | 0.00 | 0.00 | 65 | 1023.9 |
| 20260509013604 | 58 | 266 | 2.6 | 8.7 | 0.00 | 0.00 | 0.00 | 66 | 1024.0 |
| 20260509012604 | 58 | 262 | 5.2 | 7.8 | 0.00 | 0.00 | 0.00 | 63 | 1024.1 |
| 20260509012105 | 58 | 257 | 4.3 | 7.8 | 0.00 | 0.00 | 0.00 | 64 | 1024.1 |
| 20260509011604 | 58 | 218 | 0.9 | 7.0 | 0.00 | 0.00 | 0.00 | 68 | 1024.1 |
| 20260509011105 | 58 | 253 | 2.6 | 7.0 | 0.00 | 0.00 | 0.00 | 66 | 1024.1 |
| 20260509010604 | 57 | 242 | 2.6 | 5.2 | 0.00 | 0.00 | 0.00 | 65 | 1024.2 |
| 20260509010105 | 57 | 284 | 2.6 | 4.3 | 0.00 | 0.00 | 0.00 | 65 | 1024.1 |
| 20260509005604 | 57 | 301 | 2.6 | 5.2 | 0.00 | 0.00 | 0.00 | 66 | 1024.2 |
| 20260509005105 | 57 | 304 | 2.6 | 5.2 | 0.00 | 0.00 | 0.00 | 66 | 1024.2 |
| 20260509004605 | 57 | 327 | 2.6 | 6.1 | 0.00 | 0.00 | 0.00 | 67 | 1024.2 |
| 20260509004105 | 56 | 269 | 1.7 | 6.1 | 0.00 | 0.00 | 0.00 | 66 | 1024.2 |
| 20260509003604 | 56 | 318 | 2.6 | 6.1 | 0.00 | 0.00 | 0.00 | 63 | 1024.2 |
| 20260509003105 | 56 | 255 | 2.6 | 6.1 | 0.00 | 0.00 | 0.00 | 65 | 1024.3 |
| 20260509002104 | 55 | 238 | 4.3 | 6.1 | 0.00 | 0.00 | 0.00 | 67 | 1024.3 |
| 20260509001605 | 55 | 249 | 2.6 | 6.1 | 0.00 | 0.00 | 0.00 | 68 | 1024.3 |
| 20260509001105 | 54 | 245 | 2.6 | 5.2 | 0.00 | 0.00 | 0.00 | 70 | 1024.3 |
| 20260509000605 | 53 | 256 | 3.5 | 5.2 | 0.00 | 0.00 | 0.00 | 71 | 1024.3 |
| 20260508235605 | 52 | 229 | 0.9 | 4.3 | 0.00 | 0.00 | 0.00 | 73 | 1024.3 |
| 20260508235105 | 51 | 230 | 2.6 | 2.6 | 0.00 | 0.00 | 0.00 | 76 | 1024.3 |
| 20260508234105 | 50 | 210 | 0.0 | 1.7 | 0.00 | 0.00 | 0.00 | 77 | 1024.3 |
| 20260508233605 | 50 | 210 | 1.7 | 2.6 | 0.00 | 0.00 | 0.00 | 77 | 1024.2 |
| 20260508233104 | 50 | 210 | 1.7 | 2.6 | 0.00 | 0.00 | 0.00 | 77 | 1024.2 |
| 20260508232604 | 49 | 210 | 0.9 | 2.6 | 0.00 | 0.00 | 0.00 | 77 | 1024.3 |
| 20260508232104 | 49 | 210 | 1.7 | 2.6 | 0.00 | 0.00 | 0.00 | 78 | 1024.2 |
| 20260508231604 | 49 | 210 | 1.7 | 2.6 | 0.00 | 0.00 | 0.00 | 79 | 1024.2 |
| 20260508230105 | 48 | 210 | 1.7 | 2.6 | 0.00 | 0.00 | 0.00 | 79 | 1024.2 |
| 20260508225604 | 48 | 210 | 0.9 | 1.7 | 0.00 | 0.00 | 0.00 | 79 | 1024.2 |
| 20260508225105 | 48 | 210 | 1.7 | 1.7 | 0.00 | 0.00 | 0.00 | 80 | 1024.1 |
| 20260508224604 | 48 | 210 | 0.9 | 2.6 | 0.00 | 0.00 | 0.00 | 81 | 1024.1 |
| 20260508224104 | 47 | 210 | 1.7 | 2.6 | 0.00 | 0.00 | 0.00 | 81 | 1024.1 |
| 20260508223604 | 47 | 210 | 0.9 | 1.7 | 0.00 | 0.00 | 0.00 | 83 | 1024.1 |
| 20260508223104 | 47 | 210 | 1.7 | 2.6 | 0.00 | 0.00 | 0.00 | 83 | 1024.0 |
| 20260508222604 | 47 | 210 | 1.7 | 2.6 | 0.00 | 0.00 | 0.00 | 83 | 1024.0 |
| 20260508222104 | 46 | 210 | 0.0 | 2.6 | 0.00 | 0.00 | 0.00 | 84 | 1023.9 |
| 20260508220604 | 46 | 210 | 1.7 | 2.6 | 0.00 | 0.00 | 0.00 | 85 | 1023.8 |
| 20260508220104 | 46 | 210 | 1.7 | 2.6 | 0.00 | 0.00 | 0.00 | 85 | 1023.8 |
| 20260508215604 | 45 | 210 | 1.7 | 2.6 | 0.00 | 0.00 | 0.00 | 86 | 1023.8 |
| 20260508215105 | 45 | 210 | 0.9 | 2.6 | 0.00 | 0.00 | 0.00 | 86 | 1023.7 |
| 20260508214605 | 45 | 210 | 2.6 | 2.6 | 0.00 | 0.00 | 0.00 | 87 | 1023.7 |
| 20260508214105 | 45 | 210 | 1.7 | 1.7 | 0.00 | 0.00 | 0.00 | 87 | 1023.6 |
| 20260508213605 | 44 | 210 | 1.7 | 1.7 | 0.00 | 0.00 | 0.00 | 88 | 1023.5 |
| 20260508213104 | 44 | 210 | 0.0 | 1.7 | 0.00 | 0.00 | 0.00 | 88 | 1023.5 |
| 20260508212604 | 44 | 210 | 0.9 | 2.6 | 0.00 | 0.00 | 0.00 | 88 | 1023.4 |
| 20260508212104 | 44 | 210 | 1.7 | 2.6 | 0.00 | 0.00 | 0.00 | 88 | 1023.4 |
| 20260508211604 | 44 | 210 | 1.7 | 2.6 | 0.00 | 0.00 | 0.00 | 88 | 1023.3 |
| 20260508211104 | 44 | 210 | 1.7 | 2.6 | 0.00 | 0.00 | 0.00 | 88 | 1023.3 |
| 20260508210604 | 44 | 210 | 2.6 | 2.6 | 0.00 | 0.00 | 0.00 | 88 | 1023.2 |
| 20260508210104 | 44 | 210 | 2.6 | 2.6 | 0.00 | 0.00 | 0.00 | 88 | 1023.2 |
| 20260508205604 | 43 | 210 | 1.7 | 2.6 | 0.00 | 0.00 | 0.00 | 88 | 1023.1 |
| 20260508205104 | 43 | 210 | 1.7 | 4.3 | 0.00 | 0.00 | 0.00 | 88 | 1023.1 |
| 20260508204605 | 43 | 210 | 2.6 | 4.3 | 0.00 | 0.00 | 0.00 | 88 | 1023.0 |
| 20260508204104 | 43 | 210 | 2.6 | 4.3 | 0.00 | 0.00 | 0.00 | 88 | 1023.0 |
| 20260508203605 | 43 | 210 | 2.6 | 4.3 | 0.00 | 0.00 | 0.00 | 89 | 1023.0 |
| 20260508203104 | 43 | 210 | 2.6 | 2.6 | 0.00 | 0.00 | 0.00 | 89 | 1022.9 |
| 20260508202604 | 43 | 210 | 2.6 | 2.6 | 0.00 | 0.00 | 0.00 | 89 | 1022.9 |
| 20260508202104 | 43 | 210 | 1.7 | 4.3 | 0.00 | 0.00 | 0.00 | 89 | 1022.8 |
| 20260508201604 | 43 | 210 | 2.6 | 4.3 | 0.00 | 0.00 | 0.00 | 89 | 1022.8 |
| 20260508201104 | 43 | 210 | 3.5 | 4.3 | 0.00 | 0.00 | 0.00 | 90 | 1022.8 |
| 20260508200605 | 43 | 210 | 2.6 | 4.3 | 0.00 | 0.00 | 0.00 | 90 | 1022.7 |
| 20260508200104 | 43 | 211 | 3.5 | 4.3 | 0.00 | 0.00 | 0.00 | 90 | 1022.6 |
| 20260508195604 | 43 | 213 | 2.6 | 4.3 | 0.00 | 0.00 | 0.00 | 90 | 1022.6 |
| 20260508195104 | 42 | 213 | 1.7 | 4.3 | 0.00 | 0.00 | 0.00 | 90 | 1022.5 |
| 20260508194604 | 42 | 213 | 2.6 | 4.3 | 0.00 | 0.00 | 0.00 | 90 | 1022.5 |
| 20260508194104 | 42 | 213 | 1.7 | 2.6 | 0.00 | 0.00 | 0.00 | 90 | 1022.5 |
| 20260508193604 | 42 | 213 | 2.6 | 2.6 | 0.00 | 0.00 | 0.00 | 90 | 1022.3 |
| 20260508193104 | 42 | 213 | 1.7 | 4.3 | 0.00 | 0.00 | 0.00 | 90 | 1022.3 |
| 20260508192604 | 42 | 213 | 2.6 | 4.3 | 0.00 | 0.00 | 0.00 | 90 | 1022.2 |
| 20260508191604 | 43 | 213 | 1.7 | 4.3 | 0.00 | 0.00 | 0.00 | 90 | 1022.2 |
| 20260508190604 | 43 | 213 | 2.6 | 4.3 | 0.00 | 0.00 | 0.00 | 91 | 1022.1 |
| 20260508190104 | 42 | 214 | 2.6 | 4.3 | 0.00 | 0.00 | 0.00 | 91 | 1022.1 |
| 20260508185604 | 42 | 215 | 3.5 | 4.3 | 0.00 | 0.00 | 0.00 | 91 | 1022.0 |
| 20260508185104 | 42 | 225 | 2.6 | 4.3 | 0.00 | 0.00 | 0.00 | 91 | 1022.0 |
| 20260508184604 | 42 | 225 | 2.6 | 2.6 | 0.00 | 0.00 | 0.00 | 90 | 1022.0 |
| 20260508183604 | 42 | 223 | 0.0 | 2.6 | 0.00 | 0.00 | 0.00 | 90 | 1022.0 |
| 20260508183104 | 43 | 223 | 0.9 | 4.3 | 0.00 | 0.00 | 0.00 | 90 | 1022.0 |
| 20260508182604 | 43 | 223 | 3.5 | 4.3 | 0.00 | 0.00 | 0.00 | 91 | 1022.0 |
| 20260508182104 | 42 | 227 | 4.3 | 4.3 | 0.00 | 0.00 | 0.00 | 91 | 1022.0 |
| 20260508181603 | 42 | 229 | 2.6 | 4.3 | 0.00 | 0.00 | 0.00 | 91 | 1022.0 |
| 20260508181104 | 42 | 229 | 1.7 | 2.6 | 0.00 | 0.00 | 0.00 | 91 | 1021.9 |
| 20260508180604 | 42 | 229 | 2.6 | 2.6 | 0.00 | 0.00 | 0.00 | 91 | 1021.9 |
| 20260508180104 | 42 | 229 | 1.7 | 4.3 | 0.00 | 0.00 | 0.00 | 91 | 1021.9 |
| 20260508175604 | 42 | 229 | 1.7 | 4.3 | 0.00 | 0.00 | 0.00 | 91 | 1021.8 |
| 20260508175104 | 42 | 215 | 2.6 | 2.6 | 0.00 | 0.00 | 0.00 | 90 | 1021.7 |
| 20260508174603 | 42 | 210 | 1.7 | 2.6 | 0.00 | 0.00 | 0.00 | 90 | 1021.7 |
| 20260508174104 | 43 | 202 | 1.7 | 2.6 | 0.00 | 0.00 | 0.00 | 90 | 1021.7 |
| 20260508173104 | 43 | 202 | 1.7 | 5.2 | 0.00 | 0.00 | 0.00 | 90 | 1021.7 |
| 20260508172604 | 43 | 204 | 3.5 | 5.2 | 0.00 | 0.00 | 0.00 | 90 | 1021.7 |
| 20260508172104 | 43 | 200 | 1.7 | 5.2 | 0.00 | 0.00 | 0.00 | 90 | 1021.7 |
| 20260508171604 | 43 | 200 | 2.6 | 5.2 | 0.00 | 0.00 | 0.00 | 90 | 1021.7 |
| 20260508171104 | 43 | 192 | 4.3 | 5.2 | 0.00 | 0.00 | 0.00 | 90 | 1021.7 |
| 20260508170604 | 43 | 201 | 4.3 | 5.2 | 0.00 | 0.00 | 0.00 | 90 | 1021.7 |
| 20260508165604 | 43 | 205 | 2.6 | 5.2 | 0.00 | 0.00 | 0.00 | 89 | 1021.7 |
| 20260508164604 | 43 | 198 | 2.6 | 6.1 | 0.00 | 0.00 | 0.00 | 89 | 1021.7 |
| 20260508164105 | 43 | 198 | 2.6 | 6.1 | 0.00 | 0.00 | 0.00 | 90 | 1021.8 |
| 20260508163604 | 43 | 202 | 2.6 | 4.3 | 0.00 | 0.00 | 0.00 | 89 | 1021.7 |
| 20260508162104 | 44 | 203 | 2.6 | 4.3 | 0.00 | 0.00 | 0.00 | 89 | 1021.7 |
| 20260508161604 | 44 | 202 | 2.6 | 5.2 | 0.00 | 0.00 | 0.00 | 88 | 1021.7 |
| 20260508160604 | 44 | 194 | 3.5 | 6.1 | 0.00 | 0.00 | 0.00 | 88 | 1021.7 |
| 20260508155604 | 44 | 197 | 4.3 | 7.0 | 0.00 | 0.00 | 0.00 | 89 | 1021.7 |
| 20260508155104 | 44 | 204 | 2.6 | 7.8 | 0.00 | 0.00 | 0.00 | 89 | 1021.7 |
| 20260508154604 | 44 | 198 | 6.1 | 7.8 | 0.00 | 0.00 | 0.00 | 89 | 1021.6 |
| 20260508153604 | 44 | 203 | 6.1 | 7.0 | 0.00 | 0.00 | 0.00 | 89 | 1021.7 |
| 20260508153104 | 43 | 202 | 5.2 | 7.0 | 0.00 | 0.00 | 0.00 | 90 | 1021.7 |
| 20260508152603 | 43 | 201 | 4.3 | 7.0 | 0.00 | 0.00 | 0.00 | 91 | 1021.7 |
| 20260508152104 | 43 | 202 | 5.2 | 6.1 | 0.00 | 0.00 | 0.00 | 91 | 1021.7 |
| 20260508151604 | 43 | 198 | 3.5 | 6.1 | 0.00 | 0.00 | 0.00 | 91 | 1021.7 |
| 20260508151104 | 42 | 228 | 2.6 | 4.3 | 0.00 | 0.00 | 0.00 | 90 | 1021.8 |
| 20260508150604 | 42 | 237 | 1.7 | 2.6 | 0.00 | 0.00 | 0.00 | 90 | 1021.8 |
| 20260508150104 | 43 | 248 | 2.6 | 4.3 | 0.00 | 0.00 | 0.00 | 89 | 1021.7 |
| 20260508145604 | 43 | 248 | 2.6 | 4.3 | 0.00 | 0.00 | 0.00 | 89 | 1021.8 |
| 20260508144605 | 43 | 201 | 2.6 | 5.2 | 0.00 | 0.00 | 0.00 | 89 | 1021.8 |
| 20260508144104 | 43 | 198 | 1.7 | 6.1 | 0.00 | 0.00 | 0.00 | 88 | 1021.7 |
| 20260508143604 | 43 | 189 | 1.7 | 6.1 | 0.00 | 0.00 | 0.00 | 88 | 1021.7 |
| 20260508143104 | 44 | 203 | 1.7 | 6.1 | 0.00 | 0.00 | 0.00 | 88 | 1021.7 |
| 20260508142604 | 44 | 200 | 3.5 | 6.1 | 0.00 | 0.00 | 0.00 | 88 | 1021.6 |
| 20260508142104 | 44 | 191 | 5.2 | 6.1 | 0.00 | 0.00 | 0.00 | 88 | 1021.6 |
| 20260508141604 | 44 | 198 | 4.3 | 7.0 | 0.00 | 0.00 | 0.00 | 87 | 1021.6 |
| 20260508141105 | 44 | 201 | 4.3 | 7.8 | 0.00 | 0.00 | 0.00 | 87 | 1021.6 |
| 20260508140604 | 44 | 207 | 5.2 | 7.8 | 0.00 | 0.00 | 0.00 | 87 | 1021.5 |
| 20260508140104 | 44 | 201 | 5.2 | 7.8 | 0.00 | 0.00 | 0.00 | 87 | 1021.5 |
| 20260508135603 | 44 | 205 | 5.2 | 8.7 | 0.00 | 0.00 | 0.00 | 87 | 1021.6 |
| 20260508135104 | 44 | 204 | 6.1 | 8.7 | 0.00 | 0.00 | 0.00 | 87 | 1021.5 |
| 20260508134605 | 44 | 200 | 6.1 | 10.4 | 0.00 | 0.00 | 0.00 | 87 | 1021.5 |
| 20260508134105 | 44 | 207 | 6.1 | 10.4 | 0.00 | 0.00 | 0.00 | 88 | 1021.6 |
| 20260508133604 | 44 | 206 | 6.1 | 8.7 | 0.00 | 0.00 | 0.00 | 88 | 1021.6 |
| 20260508133104 | 43 | 203 | 4.3 | 11.3 | 0.00 | 0.00 | 0.00 | 89 | 1021.6 |
| 20260508132605 | 43 | 206 | 6.1 | 11.3 | 0.00 | 0.00 | 0.00 | 89 | 1021.5 |
| 20260508132104 | 43 | 213 | 3.5 | 5.2 | 0.00 | 0.00 | 0.00 | 88 | 1021.5 |
| 20260508131605 | 43 | 236 | 4.3 | 4.3 | 0.00 | 0.00 | 0.00 | 88 | 1021.5 |
| 20260508131104 | 43 | 200 | 2.6 | 8.7 | 0.00 | 0.00 | 0.00 | 88 | 1021.6 |
| 20260508130604 | 43 | 263 | 2.6 | 8.7 | 0.00 | 0.00 | 0.00 | 88 | 1021.7 |
| 20260508125604 | 44 | 249 | 4.3 | 8.7 | 0.00 | 0.00 | 0.00 | 88 | 1021.7 |
| 20260508125104 | 44 | 205 | 3.5 | 8.7 | 0.00 | 0.00 | 0.00 | 88 | 1021.6 |
| 20260508124604 | 44 | 245 | 3.5 | 8.7 | 0.00 | 0.00 | 0.00 | 87 | 1021.6 |
| 20260508124105 | 44 | 240 | 3.5 | 7.0 | 0.00 | 0.00 | 0.00 | 86 | 1021.6 |
| 20260508123604 | 44 | 256 | 4.3 | 8.7 | 0.00 | 0.00 | 0.00 | 86 | 1021.7 |
| 20260508123105 | 44 | 192 | 5.2 | 8.7 | 0.00 | 0.00 | 0.00 | 87 | 1021.7 |
| 20260508122604 | 44 | 203 | 2.6 | 8.7 | 0.00 | 0.00 | 0.00 | 86 | 1021.7 |
| 20260508122105 | 44 | 241 | 3.5 | 8.7 | 0.00 | 0.00 | 0.00 | 86 | 1021.7 |
| 20260508121104 | 45 | 196 | 3.5 | 8.7 | 0.00 | 0.00 | 0.00 | 86 | 1021.6 |
| 20260508120604 | 45 | 216 | 3.5 | 8.7 | 0.00 | 0.00 | 0.00 | 86 | 1021.5 |
| 20260508120105 | 45 | 214 | 4.3 | 8.7 | 0.00 | 0.00 | 0.00 | 86 | 1021.5 |
| 20260508115604 | 45 | 205 | 2.6 | 10.4 | 0.00 | 0.00 | 0.00 | 86 | 1021.5 |
| 20260508115105 | 45 | 238 | 3.5 | 10.4 | 0.00 | 0.00 | 0.00 | 86 | 1021.5 |
| 20260508114604 | 45 | 203 | 2.6 | 11.3 | 0.00 | 0.00 | 0.00 | 86 | 1021.4 |
| 20260508114104 | 45 | 203 | 6.1 | 13.0 | 0.00 | 0.00 | 0.00 | 86 | 1021.3 |
| 20260508113604 | 45 | 207 | 4.3 | 13.0 | 0.00 | 0.00 | 0.00 | 86 | 1021.4 |
| 20260508113104 | 45 | 207 | 5.2 | 13.0 | 0.00 | 0.00 | 0.00 | 86 | 1021.4 |
| 20260508112604 | 45 | 208 | 5.2 | 10.4 | 0.00 | 0.00 | 0.00 | 86 | 1021.3 |
| 20260508112105 | 45 | 208 | 5.2 | 13.9 | 0.00 | 0.00 | 0.00 | 86 | 1021.3 |
| 20260508111604 | 45 | 229 | 5.2 | 13.9 | 0.00 | 0.00 | 0.00 | 86 | 1021.3 |
| 20260508111104 | 45 | 203 | 6.1 | 14.8 | 0.00 | 0.00 | 0.00 | 86 | 1021.3 |
| 20260508110604 | 45 | 209 | 9.6 | 14.8 | 0.00 | 0.00 | 0.00 | 86 | 1021.2 |
| 20260508110104 | 45 | 215 | 6.1 | 13.0 | 0.00 | 0.00 | 0.00 | 86 | 1021.2 |
| 20260508105605 | 45 | 202 | 8.7 | 13.0 | 0.00 | 0.00 | 0.00 | 87 | 1021.2 |
| 20260508105104 | 44 | 202 | 7.8 | 11.3 | 0.00 | 0.00 | 0.00 | 87 | 1021.2 |
| 20260508104104 | 44 | 205 | 6.1 | 13.0 | 0.00 | 0.00 | 0.00 | 87 | 1021.2 |
| 20260508103604 | 44 | 209 | 5.2 | 8.7 | 0.00 | 0.00 | 0.00 | 87 | 1021.2 |
| 20260508103104 | 44 | 205 | 4.3 | 7.0 | 0.00 | 0.00 | 0.00 | 88 | 1021.2 |
| 20260508102605 | 44 | 237 | 4.3 | 7.0 | 0.00 | 0.00 | 0.00 | 87 | 1021.2 |